Time;durP1;ratioP1;P1;durP2;ratioP2;P2;SDS_P1;SDS_P2;PMS_P1;PMS_P2;Temp;Humidity;BMP_temperature;BMP_pressure;BME280_temperature;BME280_humidity;BME280_pressure;Samples;Min_cycle;Max_cycle;Signal;HPM_P1;HPM_P2
2023/07/20 00:01:47;;;;;;;7.38;2.20;;;;;;;24.19;67.88;94509.69;4998521;28;20172;-81
2023/07/20 00:04:13;;;;;;;7.88;2.40;;;;;;;24.19;68.25;94515.84;5016080;28;20207;-81
2023/07/20 00:06:40;;;;;;;4.68;2.13;;;;;;;24.16;69.18;94524.53;5016008;28;20176;-81
2023/07/20 00:09:05;;;;;;;5.57;2.22;;;;;;;24.19;69.51;94523.13;5014715;28;20176;-81
2023/07/20 00:11:31;;;;;;;3.42;1.85;;;;;;;24.23;69.65;94530.31;5016326;28;20638;-81
2023/07/20 00:13:56;;;;;;;9.23;2.70;;;;;;;24.27;70.20;94542.06;5015786;28;20251;-81
2023/07/20 00:16:22;;;;;;;6.80;2.50;;;;;;;24.26;70.19;94535.09;5015960;28;20615;-81
2023/07/20 00:18:47;;;;;;;7.50;3.13;;;;;;;24.32;68.87;94550.00;5015844;28;20161;-81
2023/07/20 00:21:12;;;;;;;5.57;2.30;;;;;;;24.22;66.49;94533.31;5015694;28;20566;-81
2023/07/20 00:23:38;;;;;;;6.00;2.75;;;;;;;24.28;66.83;94535.59;5015689;28;20163;-81
2023/07/20 00:26:03;;;;;;;10.35;2.25;;;;;;;24.10;67.13;94496.16;5015649;28;20255;-81
2023/07/20 00:28:29;;;;;;;6.55;2.78;;;;;;;24.44;68.08;94542.22;5016152;28;20168;-81
2023/07/20 00:30:54;;;;;;;9.77;3.05;;;;;;;24.40;68.47;94527.75;5015548;28;20523;-81
2023/07/20 00:33:19;;;;;;;8.25;2.70;;;;;;;24.52;69.20;94543.38;4997613;28;20231;-81
2023/07/20 00:35:45;;;;;;;8.70;2.60;;;;;;;24.51;67.16;94549.06;5014091;28;20181;-81
2023/07/20 00:38:11;;;;;;;9.63;2.70;;;;;;;24.41;67.38;94528.56;5016249;28;20157;-81
2023/07/20 00:40:41;;;;;;;6.63;2.20;;;;;;;24.51;68.59;94544.47;5015306;28;20183;-81
2023/07/20 00:43:07;;;;;;;8.07;2.90;;;;;;;24.53;69.21;94544.97;5015558;28;20168;-81
2023/07/20 00:45:33;;;;;;;6.63;2.73;;;;;;;24.57;69.83;94537.06;5014432;28;20911;-81
2023/07/20 00:47:59;;;;;;;7.20;2.67;;;;;;;24.57;68.40;94537.06;4997239;28;20431;-80
2023/07/20 00:50:27;;;;;;;15.73;3.00;;;;;;;24.49;67.83;94535.88;5015310;28;20709;-81
2023/07/20 00:52:52;;;;;;;6.38;2.50;;;;;;;24.53;68.44;94533.41;4997418;28;20343;-81
2023/07/20 00:55:19;;;;;;;5.90;2.10;;;;;;;24.56;67.68;94535.50;5015032;28;20620;-81
2023/07/20 00:57:44;;;;;;;4.05;1.98;;;;;;;24.39;67.49;94504.63;5015059;28;20167;-81
2023/07/20 01:00:10;;;;;;;5.40;2.03;;;;;;;23.98;68.14;94495.88;5014982;28;20164;-81
2023/07/20 01:02:36;;;;;;;3.42;2.15;;;;;;;23.88;68.56;94493.41;5015172;28;20243;-81
2023/07/20 01:05:03;;;;;;;6.45;2.60;;;;;;;24.03;69.08;94517.31;5015041;28;20550;-81
2023/07/20 01:07:35;;;;;;;6.00;2.35;;;;;;;24.14;69.57;94526.72;5015186;28;20164;-81
2023/07/20 01:10:06;;;;;;;6.05;2.03;;;;;;;24.10;69.17;94528.44;5015097;28;20187;-81
2023/07/20 01:12:42;;;;;;;3.33;2.05;;;;;;;24.11;69.85;94534.63;5014768;28;20236;-81
2023/07/20 01:15:09;;;;;;;13.30;2.53;;;;;;;24.03;69.47;94520.78;5014767;28;20643;-81
2023/07/20 01:17:35;;;;;;;6.38;2.75;;;;;;;24.07;69.77;94532.53;5014753;28;20269;-81
2023/07/20 01:20:01;;;;;;;5.88;1.92;;;;;;;23.90;69.15;94504.69;4997170;28;20169;-81
2023/07/20 01:22:56;;;;;;;4.20;1.92;;;;;;;24.01;69.72;94522.97;4997232;28;20164;-81
2023/07/20 01:25:27;;;;;;;12.50;2.40;;;;;;;23.94;69.43;94528.00;5014924;28;20183;-81
2023/07/20 01:28:29;;;;;;;6.20;2.45;;;;;;;23.93;69.51;94528.28;5014668;28;20160;-81
2023/07/20 01:31:27;;;;;;;5.60;2.20;;;;;;;23.91;69.92;94539.34;5014718;28;20164;-81
2023/07/20 01:33:56;;;;;;;6.10;2.40;;;;;;;23.89;70.29;94540.72;5014323;28;20666;-81
2023/07/20 01:36:23;;;;;;;8.27;2.53;;;;;;;23.89;70.24;94538.03;5014323;28;20157;-81
2023/07/20 01:38:49;;;;;;;10.05;3.00;;;;;;;23.85;70.27;94537.06;4997753;28;20685;-81
2023/07/20 01:41:15;;;;;;;5.00;2.03;;;;;;;23.41;71.11;94506.22;5025029;28;20168;-80
2023/07/20 01:43:40;;;;;;;7.18;2.55;;;;;;;23.36;71.74;94506.31;5027683;28;20172;-81
2023/07/20 01:46:06;;;;;;;5.75;2.47;;;;;;;23.48;72.03;94514.66;5022454;28;20209;-81
2023/07/20 01:48:31;;;;;;;8.63;2.88;;;;;;;23.31;71.96;94506.41;5016074;28;20180;-81
2023/07/20 01:50:57;;;;;;;5.13;2.15;;;;;;;23.41;72.06;94514.28;5033894;28;20587;-81
2023/07/20 01:53:22;;;;;;;5.88;2.40;;;;;;;23.52;72.08;94531.03;5034278;28;20198;-81
2023/07/20 01:55:48;;;;;;;5.15;2.42;;;;;;;23.51;72.08;94524.88;5016032;28;20257;-81
2023/07/20 01:58:13;;;;;;;5.40;2.08;;;;;;;23.38;72.26;94514.88;5033819;28;20171;-81
2023/07/20 02:00:39;;;;;;;6.30;3.40;;;;;;;23.32;72.10;94498.06;5033675;28;20172;-81
2023/07/20 02:03:05;;;;;;;19.98;8.57;;;;;;;23.47;71.86;94512.28;5034258;28;20251;-81
2023/07/20 02:05:30;;;;;;;15.95;3.10;;;;;;;23.25;71.63;94496.88;5034205;28;20156;-80
2023/07/20 02:07:55;;;;;;;10.38;5.93;;;;;;;23.05;72.19;94508.78;5032921;28;20167;-81
2023/07/20 02:10:21;;;;;;;13.57;7.40;;;;;;;23.09;72.90;94503.63;5033775;28;20634;-81
2023/07/20 02:12:47;;;;;;;13.23;3.95;;;;;;;23.24;72.71;94520.25;5033693;28;20191;-81
2023/07/20 02:15:13;;;;;;;10.77;4.25;;;;;;;23.06;72.64;94474.69;5033315;28;20176;-81
2023/07/20 02:17:40;;;;;;;8.70;3.63;;;;;;;23.30;72.33;94510.19;5033642;28;20260;-81
2023/07/20 02:20:09;;;;;;;21.95;12.50;;;;;;;23.25;72.87;94510.31;5033046;28;20401;-81
2023/07/20 02:22:35;;;;;;;21.70;9.30;;;;;;;23.29;72.76;94522.84;5015416;28;20176;-81
2023/07/20 02:25:00;;;;;;;15.35;9.10;;;;;;;23.08;72.35;94485.94;5033795;28;20166;-81
2023/07/20 02:27:26;;;;;;;21.80;11.15;;;;;;;23.07;72.43;94505.81;5033528;28;20174;-81
2023/07/20 02:29:51;;;;;;;23.63;8.30;;;;;;;23.26;72.26;94525.34;5033141;28;20160;-81
2023/07/20 02:32:17;;;;;;;20.30;7.40;;;;;;;23.16;72.38;94507.53;5033045;28;20645;-81
2023/07/20 02:34:42;;;;;;;9.63;3.88;;;;;;;23.07;72.44;94495.88;5031589;28;20210;-81
2023/07/20 02:37:08;;;;;;;8.63;2.78;;;;;;;22.97;72.50;94490.69;5032785;28;20230;-81
2023/07/20 02:39:33;;;;;;;18.98;8.13;;;;;;;22.88;72.78;94477.16;5032876;28;20160;-81
2023/07/20 02:41:59;;;;;;;11.52;5.28;;;;;;;23.10;72.83;94495.25;5015191;28;20164;-81
2023/07/20 02:44:24;;;;;;;7.18;2.47;;;;;;;22.99;73.09;94498.44;5032960;28;20156;-81
2023/07/20 02:46:50;;;;;;;9.88;3.20;;;;;;;22.94;73.42;94494.75;5032661;28;20183;-81
2023/07/20 02:49:16;;;;;;;7.10;3.08;;;;;;;22.85;73.89;94496.53;5032927;28;20156;-81
2023/07/20 02:51:41;;;;;;;9.52;5.03;;;;;;;22.73;74.54;94490.84;5032829;28;20160;-81
2023/07/20 02:54:08;;;;;;;9.50;4.82;;;;;;;22.66;74.60;94478.88;5032974;28;20192;-81
2023/07/20 02:56:33;;;;;;;20.98;9.32;;;;;;;22.56;74.78;94469.94;5015491;28;20164;-81
2023/07/20 02:58:58;;;;;;;14.20;8.70;;;;;;;22.78;74.46;94495.34;5032108;28;20658;-81
2023/07/20 03:01:24;;;;;;;14.85;6.38;;;;;;;22.80;74.63;94488.59;5030874;28;20202;-80
2023/07/20 03:03:49;;;;;;;11.50;6.10;;;;;;;22.84;74.13;94503.00;5013066;28;20179;-80
2023/07/20 03:06:16;;;;;;;15.25;4.90;;;;;;;22.84;74.26;94486.88;5030790;28;20649;-80
2023/07/20 03:08:47;;;;;;;10.07;4.75;;;;;;;22.83;74.03;94493.34;5029003;28;20171;-80
2023/07/20 03:11:16;;;;;;;7.85;3.25;;;;;;;22.75;74.32;94477.91;5026700;28;20171;-81
2023/07/20 03:13:42;;;;;;;10.52;3.70;;;;;;;22.78;74.50;94492.66;5005726;28;20199;-80
2023/07/20 03:16:11;;;;;;;13.15;4.25;;;;;;;22.79;74.54;94494.25;5028404;28;20176;-80
2023/07/20 03:18:39;;;;;;;12.38;5.53;;;;;;;22.71;74.40;94484.97;5013790;28;20928;-80
2023/07/20 03:21:11;;;;;;;8.68;3.53;;;;;;;22.86;74.38;94511.56;5027586;28;20227;-80
2023/07/20 03:23:37;;;;;;;10.50;3.58;;;;;;;22.87;74.46;94512.34;5030157;28;20180;-85
2023/07/20 03:26:02;;;;;;;9.43;3.88;;;;;;;22.73;74.49;94495.41;5014108;28;20176;-83
2023/07/20 03:28:27;;;;;;;10.27;2.95;;;;;;;22.88;74.07;94520.13;5014390;28;20260;-82
2023/07/20 03:30:56;;;;;;;13.95;2.88;;;;;;;22.81;74.52;94508.97;5032481;28;20230;-87
2023/07/20 03:33:25;;;;;;;10.98;3.30;;;;;;;22.72;74.92;94507.22;5008273;28;20219;-89
2023/07/20 03:35:50;;;;;;;6.72;3.72;;;;;;;22.67;75.60;94508.09;5012300;28;20173;-87
2023/07/20 03:38:16;;;;;;;9.75;3.80;;;;;;;22.52;75.74;94492.25;5020215;28;20164;-87
2023/07/20 03:40:59;;;;;;;13.38;5.60;;;;;;;22.49;75.99;94480.22;5017853;28;20237;-87
2023/07/20 03:43:27;;;;;;;13.05;4.32;;;;;;;22.81;75.66;94518.91;5023265;28;20163;-87
2023/07/20 03:45:53;;;;;;;12.20;5.85;;;;;;;22.80;75.67;94511.94;5019365;28;20565;-87
2023/07/20 03:48:21;;;;;;;10.40;5.68;;;;;;;22.91;75.32;94522.22;5012607;28;20172;-87
2023/07/20 03:50:48;;;;;;;17.25;4.75;;;;;;;22.83;75.04;94508.69;4998118;28;20166;-86
2023/07/20 03:53:15;;;;;;;14.90;6.07;;;;;;;22.84;75.15;94496.81;5018443;28;20561;-86
2023/07/20 03:55:47;;;;;;;19.52;7.28;;;;;;;23.05;74.99;94516.06;5026032;28;20638;-87
2023/07/20 03:58:13;;;;;;;12.80;6.65;;;;;;;22.88;74.39;94479.03;5021861;28;20689;-87
2023/07/20 04:00:39;;;;;;;18.73;9.82;;;;;;;23.20;74.19;94513.88;5026909;28;20172;-87
2023/07/20 04:03:05;;;;;;;10.02;3.50;;;;;;;23.21;73.62;94495.88;5028919;28;20171;-87
2023/07/20 04:05:30;;;;;;;15.57;5.43;;;;;;;23.09;73.34;94476.78;5011457;28;20341;-87
2023/07/20 04:07:55;;;;;;;13.73;5.53;;;;;;;23.07;73.35;94452.91;5032456;28;20160;-86
2023/07/20 04:10:21;;;;;;;7.80;3.60;;;;;;;23.52;73.49;94513.03;5016916;28;20160;-87
2023/07/20 04:12:47;;;;;;;9.82;3.80;;;;;;;23.60;74.06;94504.25;5026602;28;20261;-84
2023/07/20 04:15:13;;;;;;;11.20;4.72;;;;;;;23.75;74.01;94511.19;4997891;28;20187;-86
2023/07/20 04:17:39;;;;;;;12.90;4.28;;;;;;;23.90;73.69;94488.53;5007516;28;20204;-86
2023/07/20 04:20:06;;;;;;;9.98;3.97;;;;;;;23.94;72.61;94479.59;5007306;28;20254;-84
2023/07/20 04:22:31;;;;;;;8.68;4.15;;;;;;;24.02;71.34;94481.53;4994205;28;20260;-85
2023/07/20 04:24:56;;;;;;;16.50;3.95;;;;;;;24.19;70.66;94486.25;5018604;28;20182;-86
2023/07/20 04:27:22;;;;;;;8.18;3.97;;;;;;;24.32;70.22;94484.63;5013817;28;20318;-85
2023/07/20 04:29:47;;;;;;;7.43;3.55;;;;;;;24.19;68.61;94445.91;5032096;28;20246;-86
2023/07/20 04:32:13;;;;;;;11.52;4.05;;;;;;;24.60;68.33;94502.25;5029459;28;20171;-83
2023/07/20 04:34:39;;;;;;;11.75;3.25;;;;;;;24.73;69.86;94496.00;5035532;28;20191;-86
2023/07/20 04:37:04;;;;;;;7.50;3.15;;;;;;;24.83;67.40;94501.09;5034881;28;20251;-85
2023/07/20 04:39:30;;;;;;;7.32;3.22;;;;;;;24.96;66.61;94501.38;5017213;28;20275;-86
2023/07/20 04:41:56;;;;;;;11.50;3.03;;;;;;;24.72;66.08;94458.63;5017255;28;20171;-85
2023/07/20 04:44:21;;;;;;;9.63;3.08;;;;;;;25.06;65.68;94501.91;5034913;28;20705;-84
2023/07/20 04:46:46;;;;;;;12.13;3.30;;;;;;;25.13;65.41;94502.25;5034910;28;20156;-85
2023/07/20 04:49:13;;;;;;;11.30;4.18;;;;;;;25.25;65.79;94490.09;5034867;28;20539;-85
2023/07/20 04:51:39;;;;;;;12.10;3.30;;;;;;;25.31;65.30;94486.94;5017150;28;20179;-85
2023/07/20 04:54:04;;;;;;;11.40;3.67;;;;;;;24.68;64.76;94383.03;5035081;28;20283;-85
2023/07/20 04:56:29;;;;;;;11.27;3.28;;;;;;;25.57;64.44;94495.09;5030741;28;20260;-85
2023/07/20 04:58:55;;;;;;;15.50;3.88;;;;;;;25.77;63.29;94499.91;5015111;28;20157;-85
2023/07/20 05:01:20;;;;;;;7.40;3.20;;;;;;;25.74;62.31;94500.56;5014962;28;20185;-85
2023/07/20 05:03:46;;;;;;;5.22;2.92;;;;;;;25.65;63.09;94480.09;5015077;28;20157;-85
2023/07/20 05:06:12;;;;;;;11.98;2.85;;;;;;;25.81;62.48;94463.13;5013701;28;20199;-85
2023/07/20 05:08:38;;;;;;;9.82;3.08;;;;;;;26.05;61.90;94478.84;5015193;28;20160;-85
2023/07/20 05:11:04;;;;;;;8.60;2.60;;;;;;;26.16;63.04;94472.03;5014865;28;20176;-85
2023/07/20 05:13:29;;;;;;;7.50;3.03;;;;;;;26.51;60.59;94499.03;5015065;28;20257;-85
2023/07/20 05:15:55;;;;;;;11.32;3.58;;;;;;;26.37;59.47;94466.81;5014820;28;20553;-85
2023/07/20 05:18:20;;;;;;;9.77;2.83;;;;;;;26.66;61.00;94496.63;5014716;28;20176;-85
2023/07/20 05:20:50;;;;;;;10.23;3.08;;;;;;;26.87;61.43;94501.34;4996859;28;20191;-85
2023/07/20 05:23:19;;;;;;;18.50;4.13;;;;;;;26.98;60.11;94506.09;4996807;28;20176;-85
2023/07/20 05:25:45;;;;;;;9.10;2.97;;;;;;;26.92;58.22;94506.59;5014616;28;20187;-85
2023/07/20 05:28:11;;;;;;;10.23;3.47;;;;;;;26.90;58.27;94500.69;5014725;28;20168;-86
2023/07/20 05:30:36;;;;;;;9.30;3.97;;;;;;;26.97;58.91;94501.84;4996679;28;20187;-85
2023/07/20 05:33:01;;;;;;;24.63;3.88;;;;;;;27.06;57.20;94520.75;5014277;28;20318;-86
2023/07/20 05:35:27;;;;;;;11.55;3.50;;;;;;;27.02;56.73;94507.06;5014511;28;20247;-85
2023/07/20 05:37:53;;;;;;;7.68;3.30;;;;;;;27.09;56.45;94505.75;5014590;28;20180;-85
2023/07/20 05:40:19;;;;;;;9.70;3.42;;;;;;;27.13;57.03;94494.00;5014201;28;20177;-86
2023/07/20 05:42:48;;;;;;;14.07;3.25;;;;;;;27.39;55.86;94527.13;5013338;28;20237;-85
2023/07/20 05:45:14;;;;;;;8.52;3.28;;;;;;;27.32;56.06;94537.66;5014282;28;20160;-85
2023/07/20 05:47:41;;;;;;;11.55;4.85;;;;;;;27.33;56.63;94511.41;5014438;28;20172;-82
2023/07/20 05:50:07;;;;;;;14.45;4.32;;;;;;;27.64;56.15;94538.97;5014403;28;20211;-82
2023/07/20 05:52:32;;;;;;;11.10;3.28;;;;;;;27.77;56.61;94527.13;5014373;28;20169;-82
2023/07/20 05:54:58;;;;;;;37.78;12.02;;;;;;;27.96;58.78;94517.78;5014257;28;20188;-82
2023/07/20 05:57:23;;;;;;;22.25;8.23;;;;;;;28.30;58.45;94527.59;5013986;28;20560;-82
2023/07/20 05:59:49;;;;;;;14.45;6.28;;;;;;;28.28;59.12;94489.25;4996114;28;20177;-82
2023/07/20 06:02:14;;;;;;;10.02;4.38;;;;;;;28.66;57.72;94518.84;5013832;28;20172;-82
2023/07/20 06:04:40;;;;;;;12.35;3.92;;;;;;;28.66;57.76;94518.84;5014419;28;20287;-82
2023/07/20 06:07:07;;;;;;;15.43;4.65;;;;;;;28.86;58.08;94528.91;4996159;28;20210;-82
2023/07/20 06:09:33;;;;;;;11.52;4.32;;;;;;;29.04;56.20;94524.09;5013616;28;20246;-82
2023/07/20 06:11:59;;;;;;;14.55;3.72;;;;;;;29.15;55.92;94523.31;5013727;28;20643;-82
2023/07/20 06:14:24;;;;;;;9.02;3.42;;;;;;;29.20;54.42;94522.31;5013643;28;20200;-82
2023/07/20 06:16:50;;;;;;;11.23;4.60;;;;;;;29.29;55.39;94523.03;4995967;28;20176;-82
2023/07/20 06:19:15;;;;;;;14.35;5.00;;;;;;;29.27;54.92;94500.88;5013866;28;20183;-82
2023/07/20 06:21:42;;;;;;;9.38;3.45;;;;;;;29.35;55.79;94488.31;5013550;28;20169;-82
2023/07/20 06:24:07;;;;;;;12.00;3.75;;;;;;;29.63;55.72;94505.56;5013475;28;20655;-82
2023/07/20 06:26:38;;;;;;;8.07;3.67;;;;;;;29.76;54.03;94507.13;4995963;28;20181;-82
2023/07/20 06:29:05;;;;;;;18.98;5.18;;;;;;;29.56;51.68;94487.13;5013690;28;20167;-82
2023/07/20 06:31:31;;;;;;;10.55;4.70;;;;;;;29.59;51.59;94486.44;5013556;28;20176;-82
2023/07/20 06:33:57;;;;;;;9.82;3.50;;;;;;;29.79;51.53;94505.66;5013287;28;20278;-82
2023/07/20 06:36:22;;;;;;;10.15;3.90;;;;;;;29.65;50.16;94506.00;4995686;28;20263;-82
2023/07/20 06:38:48;;;;;;;7.53;3.35;;;;;;;29.64;51.75;94499.00;5013728;28;20906;-81
2023/07/20 06:41:13;;;;;;;7.95;3.10;;;;;;;29.67;51.67;94471.16;5013479;28;20164;-82
2023/07/20 06:43:38;;;;;;;14.55;3.33;;;;;;;29.81;51.33;94500.69;5013155;28;20184;-82
2023/07/20 06:46:04;;;;;;;12.25;3.72;;;;;;;29.91;52.44;94503.72;5027175;28;20172;-82
2023/07/20 06:48:29;;;;;;;13.15;4.18;;;;;;;30.09;52.85;94498.88;5025508;28;20169;-82
2023/07/20 06:50:55;;;;;;;11.75;4.20;;;;;;;30.31;51.06;94494.84;5022567;28;20196;-81
2023/07/20 06:53:21;;;;;;;7.63;3.42;;;;;;;30.45;50.49;94491.72;5019824;28;20199;-81
2023/07/20 06:55:46;;;;;;;14.57;3.95;;;;;;;30.44;48.54;94490.16;5023902;28;20191;-82
2023/07/20 06:58:12;;;;;;;14.45;4.20;;;;;;;30.60;50.66;94516.28;5031405;28;20186;-81
2023/07/20 07:00:37;;;;;;;13.20;3.40;;;;;;;30.82;51.36;94519.59;5013807;28;20195;-82
2023/07/20 07:03:03;;;;;;;9.35;3.63;;;;;;;30.95;50.97;94521.13;5016671;28;20175;-84
2023/07/20 07:05:28;;;;;;;10.35;3.13;;;;;;;30.91;50.57;94526.47;5023596;28;20172;-81
2023/07/20 07:07:54;;;;;;;23.90;4.28;;;;;;;30.76;49.25;94527.22;5024215;28;20270;-83
2023/07/20 07:10:19;;;;;;;10.65;4.38;;;;;;;30.44;50.90;94520.06;5014817;28;20172;-83
2023/07/20 07:12:45;;;;;;;13.00;4.55;;;;;;;30.22;52.76;94529.50;5027737;28;20258;-83
2023/07/20 07:15:13;;;;;;;12.75;5.35;;;;;;;30.14;52.15;94550.22;5023549;28;20234;-83
2023/07/20 07:17:38;;;;;;;13.73;3.88;;;;;;;30.09;53.10;94563.25;5008221;28;20582;-82
2023/07/20 07:20:05;;;;;;;9.02;3.53;;;;;;;30.13;53.58;94548.63;5021373;28;20594;-81
2023/07/20 07:22:33;;;;;;;18.33;4.30;;;;;;;30.42;53.56;94553.00;5021127;28;20569;-81
2023/07/20 07:24:58;;;;;;;11.25;4.13;;;;;;;30.70;52.26;94556.56;5021240;28;20175;-80
2023/07/20 07:27:24;;;;;;;9.40;3.63;;;;;;;31.15;51.53;94579.97;5027580;28;20183;-82
2023/07/20 07:29:49;;;;;;;10.35;3.55;;;;;;;31.24;50.11;94560.75;5003470;28;20175;-81
2023/07/20 07:32:15;;;;;;;8.63;3.97;;;;;;;31.37;48.86;94557.63;5000891;28;20184;-82
2023/07/20 07:34:41;;;;;;;11.48;4.32;;;;;;;31.50;48.91;94544.72;5023497;28;20215;-82
2023/07/20 07:37:07;;;;;;;8.65;4.00;;;;;;;31.54;48.26;94544.81;5028297;28;20186;-81
2023/07/20 07:39:32;;;;;;;8.80;3.67;;;;;;;31.79;48.92;94557.16;5030694;28;20321;-81
2023/07/20 07:41:58;;;;;;;8.05;3.72;;;;;;;32.04;48.80;94563.19;5026626;28;20168;-83
2023/07/20 07:44:23;;;;;;;8.00;3.33;;;;;;;32.19;48.94;94565.91;5023846;28;20173;-82
2023/07/20 07:46:49;;;;;;;9.60;3.28;;;;;;;32.17;46.80;94545.63;5009367;28;20184;-81
2023/07/20 07:49:15;;;;;;;10.57;4.20;;;;;;;32.29;48.78;94514.72;5028357;28;20688;-82
2023/07/20 07:51:41;;;;;;;10.90;3.88;;;;;;;32.42;47.05;94511.53;5029632;28;20175;-82
2023/07/20 07:54:07;;;;;;;9.25;3.58;;;;;;;32.53;47.37;94515.25;5031319;28;20260;-83
2023/07/20 07:56:32;;;;;;;10.70;4.10;;;;;;;32.54;47.96;94502.41;5005358;28;20176;-81
2023/07/20 07:58:57;;;;;;;8.77;3.35;;;;;;;32.74;46.68;94514.91;5025713;28;20521;-81
2023/07/20 08:01:23;;;;;;;8.45;3.60;;;;;;;32.89;47.63;94535.88;5026877;28;20183;-80
2023/07/20 08:03:48;;;;;;;21.40;5.22;;;;;;;32.90;46.79;94540.16;5028096;28;20175;-80
2023/07/20 08:06:16;;;;;;;19.98;4.05;;;;;;;33.09;46.17;94565.88;5030999;28;20554;-82
2023/07/20 08:08:44;;;;;;;12.65;3.42;;;;;;;33.05;45.33;94576.69;5031719;28;20234;-81
2023/07/20 08:11:10;;;;;;;13.45;4.40;;;;;;;32.91;46.33;94560.06;5025406;28;20172;-81
2023/07/20 08:13:36;;;;;;;9.40;3.42;;;;;;;32.94;47.04;94559.34;5034172;28;20207;-82
2023/07/20 08:16:02;;;;;;;8.73;3.75;;;;;;;33.01;47.14;94580.53;5015927;28;20187;-82
2023/07/20 08:18:28;;;;;;;16.15;3.45;;;;;;;32.92;46.32;94575.28;5017404;28;20184;-80
2023/07/20 08:20:53;;;;;;;15.93;3.05;;;;;;;32.83;45.88;94583.69;5036045;28;20163;-80
2023/07/20 08:23:19;;;;;;;9.52;2.40;;;;;;;32.71;46.01;94572.09;5034476;28;20207;-82
2023/07/20 08:25:45;;;;;;;8.35;2.70;;;;;;;32.57;45.06;94551.56;5025552;28;20187;-82
2023/07/20 08:28:12;;;;;;;9.27;2.63;;;;;;;32.71;44.68;94564.72;5012581;28;20192;-81
2023/07/20 08:30:45;;;;;;;15.85;3.20;;;;;;;32.72;44.98;94570.97;5027480;28;20567;-81
2023/07/20 08:33:13;;;;;;;6.38;2.80;;;;;;;32.60;43.60;94580.84;5034770;28;20227;-81
2023/07/20 08:35:39;;;;;;;9.43;2.65;;;;;;;32.46;44.81;94585.97;5026023;28;20562;-81
2023/07/20 08:38:04;;;;;;;10.27;3.60;;;;;;;32.20;44.06;94544.91;5026291;28;20258;-81
2023/07/20 08:40:39;;;;;;;10.30;2.22;;;;;;;32.46;46.78;94572.34;5026027;28;20179;-80
2023/07/20 08:43:05;;;;;;;12.88;2.88;;;;;;;32.57;44.29;94575.31;5023743;28;20190;-81
2023/07/20 08:45:33;;;;;;;9.73;2.75;;;;;;;32.39;44.72;94585.81;5024432;28;20176;-81
2023/07/20 08:48:00;;;;;;;6.25;2.60;;;;;;;32.33;43.33;94572.84;5017574;28;20172;-80
2023/07/20 08:50:28;;;;;;;8.57;2.78;;;;;;;32.26;45.49;94576.16;5015374;28;20566;-82
2023/07/20 08:52:57;;;;;;;11.25;2.85;;;;;;;32.21;44.09;94569.06;5023302;28;20697;-80
2023/07/20 08:55:24;;;;;;;5.50;2.38;;;;;;;32.39;44.59;94582.31;5027240;28;20203;-79
2023/07/20 08:57:54;;;;;;;14.07;2.53;;;;;;;32.19;44.50;94576.00;5033792;28;20187;-80
2023/07/20 09:00:21;;;;;;;7.13;2.03;;;;;;;32.18;43.90;94569.78;5030940;28;20164;-81
2023/07/20 09:02:51;;;;;;;8.63;2.25;;;;;;;32.07;45.60;94535.25;5020943;28;20187;-81
2023/07/20 09:05:17;;;;;;;7.60;3.03;;;;;;;32.39;43.58;94552.31;5021969;28;20207;-81
2023/07/20 09:07:42;;;;;;;6.05;2.85;;;;;;;32.47;43.15;94563.03;5025745;28;20195;-81
2023/07/20 09:10:08;;;;;;;9.15;2.40;;;;;;;32.50;44.51;94566.97;5011726;28;20181;-81
2023/07/20 09:12:41;;;;;;;7.72;2.58;;;;;;;32.29;43.04;94531.06;5030867;28;20270;-80
2023/07/20 09:15:08;;;;;;;7.28;2.33;;;;;;;32.31;42.87;94550.59;5023781;28;20183;-81
2023/07/20 09:17:33;;;;;;;7.50;2.40;;;;;;;32.43;41.73;94550.47;5022049;28;20184;-81
2023/07/20 09:20:07;;;;;;;4.13;2.10;;;;;;;32.30;42.95;94540.84;5021309;28;20301;-83
2023/07/20 09:22:34;;;;;;;8.43;2.33;;;;;;;32.03;41.66;94531.63;5024267;28;20172;-80
2023/07/20 09:24:59;;;;;;;8.43;2.42;;;;;;;32.09;43.02;94547.34;5005573;28;20173;-81
2023/07/20 09:27:46;;;;;;;10.82;2.78;;;;;;;32.10;43.01;94545.41;5023287;28;20169;-79
2023/07/20 09:30:14;;;;;;;6.65;2.40;;;;;;;32.21;43.38;94547.28;5025046;28;20180;-80
2023/07/20 09:32:47;;;;;;;9.43;2.45;;;;;;;32.22;41.92;94537.94;5025005;28;20220;-82
2023/07/20 09:35:17;;;;;;;5.57;1.90;;;;;;;32.31;41.74;94545.94;5020124;28;20183;-80
2023/07/20 09:38:09;;;;;;;12.63;2.42;;;;;;;32.36;41.98;94537.47;5025373;28;20669;-80
2023/07/20 09:40:38;;;;;;;5.97;2.30;;;;;;;32.08;42.25;94536.81;5024106;28;20215;-86
2023/07/20 09:43:08;;;;;;;6.05;2.20;;;;;;;32.16;41.65;94538.59;5024503;28;20172;-87
2023/07/20 09:45:35;;;;;;;8.35;2.08;;;;;;;32.14;41.72;94536.19;5007328;28;20183;-81
2023/07/20 09:48:06;;;;;;;10.43;2.42;;;;;;;31.93;41.94;94518.56;5024856;28;20282;-81
2023/07/20 09:50:32;;;;;;;5.25;2.30;;;;;;;31.93;42.06;94513.91;5023523;28;20732;-80
2023/07/20 09:52:58;;;;;;;12.30;3.20;;;;;;;32.01;40.88;94512.13;5019170;28;20222;-82
2023/07/20 09:55:26;;;;;;;9.52;2.08;;;;;;;31.89;42.95;94474.91;5025057;28;20182;-82
2023/07/20 09:57:53;;;;;;;5.05;2.55;;;;;;;32.02;42.07;94494.63;5024445;28;20167;-82
2023/07/20 10:00:19;;;;;;;9.35;2.20;;;;;;;31.96;41.17;94504.22;5011052;28;20160;-82
2023/07/20 10:02:45;;;;;;;6.57;2.55;;;;;;;31.88;41.43;94510.66;5026521;28;20187;-81
2023/07/20 10:05:15;;;;;;;8.30;2.05;;;;;;;31.74;42.31;94511.91;5023170;28;20164;-81
2023/07/20 10:07:48;;;;;;;6.18;2.42;;;;;;;31.43;42.12;94495.56;5022540;28;20176;-82
2023/07/20 10:10:17;;;;;;;8.65;2.17;;;;;;;31.10;41.77;94502.13;5021405;28;20243;-82
2023/07/20 10:12:46;;;;;;;8.57;2.58;;;;;;;30.97;43.94;94514.19;5012773;28;20235;-82
2023/07/20 10:15:19;;;;;;;14.15;2.72;;;;;;;30.91;43.86;94515.56;5012307;28;20715;-81
2023/07/20 10:18:03;;;;;;;10.88;2.55;;;;;;;30.83;44.29;94518.44;5009570;28;20176;-81
2023/07/20 10:20:31;;;;;;;9.23;2.38;;;;;;;30.80;43.82;94519.94;5010207;28;20573;-84
2023/07/20 10:22:57;;;;;;;8.35;2.42;;;;;;;30.59;43.76;94525.59;5011599;28;20652;-81
2023/07/20 10:25:23;;;;;;;8.13;2.25;;;;;;;30.50;42.22;94515.94;5010574;28;20179;-81
2023/07/20 10:27:50;;;;;;;8.00;2.25;;;;;;;30.49;43.13;94525.25;4993279;28;20172;-81
2023/07/20 10:30:17;;;;;;;13.10;2.60;;;;;;;30.20;43.31;94478.22;5011164;28;20199;-81
2023/07/20 10:32:43;;;;;;;4.88;2.17;;;;;;;30.09;43.02;94489.94;5012489;28;20215;-81
2023/07/20 10:35:14;;;;;;;5.85;1.98;;;;;;;30.05;44.84;94503.38;5013906;28;20189;-82
2023/07/20 10:37:51;;;;;;;4.93;2.10;;;;;;;30.13;45.23;94505.19;5025634;28;20187;-82
2023/07/20 10:40:33;;;;;;;8.52;2.25;;;;;;;30.11;44.33;94507.44;5034154;28;20191;-82
2023/07/20 10:43:07;;;;;;;7.63;2.38;;;;;;;29.92;42.91;94450.22;5013709;28;20159;-82
2023/07/20 10:45:51;;;;;;;6.28;2.38;;;;;;;30.05;44.22;94419.19;5031454;28;20179;-82
2023/07/20 10:48:16;;;;;;;4.00;2.22;;;;;;;30.13;45.69;94426.41;5031196;28;20171;-82
2023/07/20 10:50:43;;;;;;;5.30;1.67;;;;;;;30.12;45.35;94470.22;5031277;28;20176;-81
2023/07/20 10:53:18;;;;;;;23.02;2.58;;;;;;;30.12;45.35;94481.88;5014742;28;20200;-82
2023/07/20 10:55:46;;;;;;;7.65;3.53;;;;;;;30.07;45.26;94463.09;5013138;28;20243;-82
2023/07/20 10:58:14;;;;;;;18.85;2.63;;;;;;;30.09;44.28;94441.03;5012642;28;20188;-81
2023/07/20 11:00:57;;;;;;;6.78;2.22;;;;;;;30.24;47.85;94445.75;5013080;28;20689;-81
2023/07/20 11:03:32;;;;;;;8.32;2.30;;;;;;;30.37;46.94;94444.53;5012836;28;20652;-81
2023/07/20 11:05:59;;;;;;;6.80;2.28;;;;;;;30.42;46.96;94428.00;5012461;28;20259;-82
2023/07/20 11:08:41;;;;;;;13.82;2.47;;;;;;;30.57;48.07;94415.63;5012876;28;20163;-82
2023/07/20 11:11:25;;;;;;;4.38;1.98;;;;;;;30.78;47.09;94427.06;5012688;28;20175;-81
2023/07/20 11:14:01;;;;;;;11.15;3.08;;;;;;;30.86;48.10;94430.75;4995047;28;20192;-82
2023/07/20 11:16:43;;;;;;;4.43;2.20;;;;;;;30.98;46.12;94436.91;4994783;28;20169;-82
2023/07/20 11:19:26;;;;;;;13.10;2.40;;;;;;;31.13;46.30;94418.25;5012491;28;20171;-82
2023/07/20 11:21:55;;;;;;;9.10;2.63;;;;;;;31.24;45.44;94422.00;5012464;28;20160;-82
2023/07/20 11:24:20;;;;;;;8.25;3.20;;;;;;;31.24;44.33;94417.34;5012535;28;20214;-82
2023/07/20 11:26:47;;;;;;;7.00;2.50;;;;;;;31.33;46.15;94422.63;5012534;28;20598;-82
2023/07/20 11:29:13;;;;;;;5.40;2.80;;;;;;;31.25;45.63;94401.81;5012469;28;20644;-82
2023/07/20 11:31:40;;;;;;;6.30;2.50;;;;;;;31.41;46.02;94411.53;5012366;28;20181;-82